Time;durP1;ratioP1;P1;durP2;ratioP2;P2;SDS_P1;SDS_P2;PMS_P1;PMS_P2;Temp;Humidity;BMP_temperature;BMP_pressure;BME280_temperature;BME280_humidity;BME280_pressure;Samples;Min_cycle;Max_cycle;Signal;HPM_P1;HPM_P2
2021/04/21 00:02:42;;;;;;;25.57;19.82;;;;;;;7.77;100.00;99360.91;1751737;82;21305;-80
2021/04/21 00:05:47;;;;;;;26.87;19.87;;;;;;;7.73;100.00;99372.34;1751925;82;21148;-80
2021/04/21 00:08:53;;;;;;;30.60;22.13;;;;;;;7.66;100.00;99373.56;1751690;82;21307;-80
2021/04/21 00:11:59;;;;;;;27.98;22.15;;;;;;;7.63;100.00;99377.50;1751963;82;21777;-80
2021/04/21 00:15:05;;;;;;;25.52;20.90;;;;;;;7.58;100.00;99377.72;1756314;81;21270;-80
2021/04/21 00:18:12;;;;;;;33.78;22.67;;;;;;;7.53;100.00;99383.70;1751766;82;21314;-80
2021/04/21 00:21:19;;;;;;;31.55;23.12;;;;;;;7.50;100.00;99388.64;1751834;82;21183;-80
2021/04/21 00:24:27;;;;;;;33.45;24.35;;;;;;;7.42;100.00;99386.80;1752028;82;21773;-80
2021/04/21 00:27:35;;;;;;;34.13;25.27;;;;;;;7.37;100.00;99396.86;1751600;82;21179;-80
2021/04/21 00:30:43;;;;;;;36.25;25.92;;;;;;;7.33;100.00;99395.52;1751939;82;21266;-80
2021/04/21 00:33:49;;;;;;;41.33;29.52;;;;;;;7.28;100.00;99399.80;1751705;82;21273;-80
2021/04/21 00:36:58;;;;;;;41.33;30.72;;;;;;;7.23;100.00;99408.48;1751908;82;21801;-80
2021/04/21 00:40:05;;;;;;;;;;;;;;;7.20;100.00;99412.06;1754404;82;21262;-80
2021/04/21 00:43:31;;;;;;;40.45;31.45;;;;;;;7.16;100.00;99412.44;1751826;82;20175;-80
2021/04/21 00:46:46;;;;;;;53.65;34.92;;;;;;;7.13;100.00;99427.73;1733783;82;21266;-80
2021/04/21 00:50:06;;;;;;;57.15;39.88;;;;;;;7.11;100.00;99431.16;1756361;81;21227;-80
2021/04/21 00:53:24;;;;;;;48.78;34.27;;;;;;;7.09;100.00;99437.27;1750279;81;21179;-80
2021/04/21 00:57:01;;;;;;;52.55;37.45;;;;;;;7.08;100.00;99443.73;1751829;82;21229;-80
2021/04/21 01:00:18;;;;;;;47.43;33.38;;;;;;;7.05;100.00;99447.31;1740377;81;21313;-80
2021/04/21 01:03:31;;;;;;;52.15;38.25;;;;;;;7.02;100.00;99446.32;1751936;82;21223;-80
2021/04/21 01:06:41;;;;;;;53.05;36.63;;;;;;;6.98;100.00;99445.81;1737986;82;21191;-80
2021/04/21 01:09:47;;;;;;;43.63;30.05;;;;;;;6.94;100.00;99449.90;1752060;82;21136;-80
2021/04/21 01:12:56;;;;;;;44.25;29.10;;;;;;;6.90;100.00;99456.19;1751908;82;21841;-80
2021/04/21 01:16:03;;;;;;;48.70;33.02;;;;;;;6.85;100.00;99464.02;1751763;82;21301;-80
2021/04/21 01:19:15;;;;;;;37.80;29.00;;;;;;;6.80;100.00;99461.48;1756440;81;21318;-80
2021/04/21 01:22:47;;;;;;;54.08;28.55;;;;;;;6.75;100.00;99470.16;1751767;82;21301;-80
2021/04/21 01:26:20;;;;;;;33.53;24.65;;;;;;;6.71;100.00;99474.74;1751861;82;21139;-80
2021/04/21 01:29:43;;;;;;;30.50;23.25;;;;;;;6.66;100.00;99477.98;1751885;82;21274;-80
2021/04/21 01:32:47;;;;;;;32.67;23.85;;;;;;;6.61;100.00;99486.64;1751850;82;21223;-80
2021/04/21 01:36:09;;;;;;;30.65;23.67;;;;;;;6.59;100.00;99487.85;1751687;81;21282;-80
2021/04/21 01:39:15;;;;;;;31.85;22.13;;;;;;;6.56;100.00;99487.66;1740037;82;21342;-80
2021/04/21 01:42:21;;;;;;;34.30;23.32;;;;;;;6.52;100.00;99494.45;1736626;82;21252;-80
2021/04/21 01:45:30;;;;;;;31.12;22.95;;;;;;;6.50;100.00;99493.79;1733909;82;21258;-80
2021/04/21 01:48:35;;;;;;;31.02;23.38;;;;;;;6.47;100.00;99507.70;1750883;82;21312;-80
2021/04/21 01:51:42;;;;;;;36.75;23.45;;;;;;;6.46;100.00;99518.75;1737008;82;21290;-80
2021/04/21 01:54:47;;;;;;;31.97;24.72;;;;;;;6.42;100.00;99517.39;1751915;82;21270;-80
2021/04/21 01:58:33;;;;;;;33.53;23.62;;;;;;;6.40;100.00;99524.36;1751264;82;21318;-80
2021/04/21 02:02:11;;;;;;;34.00;24.75;;;;;;;6.37;100.00;99517.89;1751983;82;21808;-80
2021/04/21 02:05:27;;;;;;;37.73;24.27;;;;;;;6.36;100.00;99517.05;1751864;82;21329;-80
2021/04/21 02:09:01;;;;;;;34.48;22.70;;;;;;;6.32;100.00;99515.67;1722325;81;21273;-80
2021/04/21 02:12:16;;;;;;;33.55;24.55;;;;;;;6.30;100.00;99527.72;1751907;82;21310;-80
2021/04/21 02:15:28;;;;;;;28.80;21.60;;;;;;;6.29;100.00;99532.81;1736284;82;21155;-80
2021/04/21 02:18:55;;;;;;;31.10;20.70;;;;;;;6.28;100.00;99533.32;1750726;82;21186;-80
2021/04/21 02:22:39;;;;;;;30.20;22.20;;;;;;;6.25;100.00;99539.08;1751893;82;21274;-80
2021/04/21 02:26:36;;;;;;;28.10;20.48;;;;;;;6.23;100.00;99548.42;1751852;82;21274;-80
2021/04/21 02:30:06;;;;;;;33.15;22.58;;;;;;;6.19;100.00;99553.34;1752085;82;21203;-80
2021/04/21 02:33:36;;;;;;;32.53;23.27;;;;;;;6.16;100.00;99556.38;1751852;82;21337;-80
2021/04/21 02:37:05;;;;;;;31.60;23.67;;;;;;;6.17;100.00;99558.09;1750935;81;21290;-80
2021/04/21 02:40:40;;;;;;;31.30;23.20;;;;;;;6.14;100.00;99552.98;1743469;82;21254;-80
2021/04/21 02:44:09;;;;;;;32.33;24.43;;;;;;;6.13;100.00;99562.16;1732682;82;21322;-80
2021/04/21 02:47:50;;;;;;;;;;;;;;;6.13;100.00;99572.50;1745930;82;21330;-80
2021/04/21 02:51:02;;;;;;;41.68;24.18;;;;;;;6.10;99.94;99573.34;1743412;82;20636;-80
2021/04/21 02:54:16;;;;;;;32.17;21.90;;;;;;;5.98;99.47;99583.67;1743290;82;21728;-80
2021/04/21 02:58:16;;;;;;;32.75;23.77;;;;;;;5.91;99.17;99581.22;1743454;82;21326;-80
2021/04/21 03:01:47;;;;;;;29.50;21.23;;;;;;;5.84;99.00;99595.12;1743684;82;21151;-80
2021/04/21 03:05:24;;;;;;;33.60;24.32;;;;;;;5.77;98.87;99603.04;1743539;82;21168;-80
2021/04/21 03:08:44;;;;;;;30.08;23.55;;;;;;;5.73;98.74;99614.38;1742975;82;21227;-80
2021/04/21 03:11:50;;;;;;;36.25;25.55;;;;;;;5.67;98.69;99610.97;1724521;82;21278;-80
2021/04/21 03:14:55;;;;;;;37.58;26.60;;;;;;;5.67;98.87;99621.31;1743366;82;21151;-80
2021/04/21 03:18:00;;;;;;;40.88;27.13;;;;;;;5.73;99.20;99623.38;1724051;82;21338;-80
2021/04/21 03:21:19;;;;;;;35.52;25.95;;;;;;;5.81;99.42;99637.50;1719589;82;21171;-80
2021/04/21 03:24:34;;;;;;;36.65;25.65;;;;;;;5.84;99.39;99643.46;1740159;82;21338;-80
2021/04/21 03:27:39;;;;;;;35.35;22.85;;;;;;;5.92;99.50;99651.31;1743452;82;21316;-80
2021/04/21 03:30:45;;;;;;;30.23;20.85;;;;;;;5.98;99.50;99658.83;1743455;82;21266;-80
2021/04/21 03:33:57;;;;;;;31.48;23.20;;;;;;;6.02;99.35;99665.61;1743324;82;21297;-80
2021/04/21 03:37:03;;;;;;;45.60;24.87;;;;;;;5.99;98.79;99669.52;1743266;82;21325;-80
2021/04/21 03:40:09;;;;;;;34.53;24.80;;;;;;;5.97;98.22;99667.96;1743177;82;21279;-80
2021/04/21 03:43:15;;;;;;;42.70;29.20;;;;;;;5.95;97.71;99668.64;1742501;82;21306;-80
2021/04/21 03:46:21;;;;;;;41.98;27.67;;;;;;;5.95;97.46;99672.72;1743276;82;21207;-80
2021/04/21 03:49:27;;;;;;;42.60;30.95;;;;;;;6.01;97.41;99679.69;1742327;82;21164;-80
2021/04/21 03:52:33;;;;;;;44.95;30.32;;;;;;;6.07;97.40;99686.33;1742511;82;21298;-80
2021/04/21 03:55:40;;;;;;;46.65;31.30;;;;;;;6.19;97.50;99693.70;1743137;82;21317;-80
2021/04/21 03:58:46;;;;;;;40.95;29.50;;;;;;;6.35;97.82;99694.63;1743392;82;21302;-80
2021/04/21 04:01:53;;;;;;;45.95;31.55;;;;;;;6.57;98.21;99702.66;1743418;82;21270;-79
2021/04/21 04:05:02;;;;;;;43.65;30.02;;;;;;;6.83;98.52;99706.64;1743522;82;21263;-80
2021/04/21 04:08:14;;;;;;;37.55;27.60;;;;;;;7.12;98.71;99713.48;1743236;82;21271;-81
2021/04/21 04:11:20;;;;;;;35.78;26.20;;;;;;;7.38;98.73;99717.39;1724651;82;21196;-80
2021/04/21 04:14:31;;;;;;;37.23;25.70;;;;;;;7.53;97.87;99710.74;1743210;82;21188;-80
2021/04/21 04:17:37;;;;;;;36.20;25.82;;;;;;;7.68;97.30;99719.94;1743335;82;21207;-80
2021/04/21 04:20:43;;;;;;;40.90;28.20;;;;;;;7.82;96.68;99721.95;1743393;82;21163;-81
2021/04/21 04:23:49;;;;;;;38.17;26.55;;;;;;;7.95;95.96;99735.02;1743180;82;21167;-81
2021/04/21 04:26:56;;;;;;;38.05;26.37;;;;;;;8.05;95.10;99737.58;1743163;82;21151;-81
2021/04/21 04:30:04;;;;;;;41.00;29.42;;;;;;;8.16;94.50;99743.48;1743410;82;21789;-81
2021/04/21 04:33:09;;;;;;;34.40;26.90;;;;;;;8.27;93.86;99746.34;1743310;82;21310;-81
2021/04/21 04:36:16;;;;;;;37.25;27.67;;;;;;;8.34;92.91;99749.23;1743421;82;21306;-81
2021/04/21 04:39:21;;;;;;;42.13;29.00;;;;;;;8.39;92.07;99767.30;1736612;81;21287;-81
2021/04/21 04:42:26;;;;;;;37.78;27.35;;;;;;;8.45;91.56;99763.34;1736741;81;21315;-81
2021/04/21 04:45:36;;;;;;;36.77;27.30;;;;;;;8.58;91.41;99763.31;1773440;81;21646;-81
2021/04/21 04:48:55;;;;;;;36.08;26.23;;;;;;;8.69;90.85;99767.84;1754842;81;21299;-81
2021/04/21 04:52:00;;;;;;;33.50;23.22;;;;;;;8.81;90.66;99760.14;1773374;81;21817;-81
2021/04/21 04:55:06;;;;;;;38.35;26.87;;;;;;;8.93;90.39;99768.23;1773402;81;21272;-81
2021/04/21 04:58:10;;;;;;;37.10;25.23;;;;;;;9.07;90.18;99768.51;1755034;81;21306;-81
2021/04/21 05:01:17;;;;;;;35.38;25.20;;;;;;;9.23;89.66;99767.05;1773439;81;21268;-81
2021/04/21 05:04:23;;;;;;;36.03;24.90;;;;;;;9.36;88.97;99770.04;1773350;81;21283;-81
2021/04/21 05:07:50;;;;;;;31.77;22.85;;;;;;;9.48;88.45;99774.02;1773266;81;21191;-81
2021/04/21 05:11:08;;;;;;;30.75;23.27;;;;;;;9.61;88.56;99776.16;1750109;81;21266;-81
2021/04/21 05:14:16;;;;;;;29.65;21.45;;;;;;;9.77;88.35;99787.45;1755483;79;21298;-81
2021/04/21 05:17:42;;;;;;;30.72;22.25;;;;;;;9.88;87.61;99797.95;1748073;81;21280;-82
2021/04/21 05:21:13;;;;;;;34.65;25.23;;;;;;;9.98;86.98;99805.37;1711006;81;21171;-81
2021/04/21 05:25:02;;;;;;;32.95;24.52;;;;;;;10.08;86.64;99805.63;1739575;81;21167;-81
2021/04/21 05:28:23;;;;;;;30.27;22.80;;;;;;;10.23;86.78;99801.03;1739164;81;21573;-82
2021/04/21 05:31:46;;;;;;;38.58;26.95;;;;;;;10.36;85.84;99804.00;1745000;81;21749;-81
2021/04/21 05:35:29;;;;;;;41.25;27.90;;;;;;;10.42;85.79;99808.71;1753164;81;21413;-81
2021/04/21 05:39:13;;;;;;;45.12;32.10;;;;;;;10.49;85.42;99813.77;1729843;82;21172;-81
2021/04/21 05:42:37;;;;;;;47.45;31.70;;;;;;;10.58;84.63;99815.88;1732622;81;21313;-80
2021/04/21 05:46:15;;;;;;;38.75;28.95;;;;;;;10.74;84.32;99825.80;1734784;82;21286;-81
2021/04/21 05:49:56;;;;;;;35.60;27.15;;;;;;;10.90;84.55;99822.84;1730010;82;21227;-82
2021/04/21 05:53:27;;;;;;;27.25;21.20;;;;;;;11.04;84.11;99827.97;1737740;80;21317;-81
2021/04/21 05:57:00;;;;;;;34.85;25.15;;;;;;;11.18;83.71;99834.46;1730367;81;21306;-82
2021/04/21 06:00:48;;;;;;;27.02;20.90;;;;;;;11.28;82.91;99834.16;1733296;81;21270;-82
2021/04/21 06:04:02;;;;;;;33.25;25.37;;;;;;;11.39;82.46;99836.41;1741247;81;21127;-81
2021/04/21 06:07:18;;;;;;;32.23;23.60;;;;;;;11.49;82.02;99838.31;1741735;81;21166;-81
2021/04/21 06:10:36;;;;;;;42.65;26.87;;;;;;;11.59;82.00;99840.21;1737957;81;21239;-81
2021/04/21 06:13:43;;;;;;;35.40;24.50;;;;;;;11.66;81.75;99835.63;1733955;81;21275;-81
2021/04/21 06:16:49;;;;;;;32.90;24.65;;;;;;;11.78;81.58;99838.72;1734301;81;21259;-81
2021/04/21 06:19:55;;;;;;;44.25;24.90;;;;;;;11.93;81.46;99844.16;1736096;81;21187;-82
2021/04/21 06:23:18;;;;;;;33.75;24.98;;;;;;;12.03;80.72;99845.52;1730876;81;21201;-81
2021/04/21 06:26:33;;;;;;;30.92;22.95;;;;;;;12.18;80.95;99853.66;1720179;81;21733;-85
2021/04/21 06:29:41;;;;;;;34.48;22.20;;;;;;;12.32;78.68;99853.24;1735245;81;21851;-86
2021/04/21 06:32:48;;;;;;;28.75;21.55;;;;;;;12.40;78.45;99857.22;1735307;81;21512;-84
2021/04/21 06:35:57;;;;;;;31.02;21.97;;;;;;;12.49;78.26;99862.88;1737331;81;21282;-85
2021/04/21 06:39:02;;;;;;;27.55;20.55;;;;;;;12.60;78.19;99857.89;1732517;81;21860;-86
2021/04/21 06:42:08;;;;;;;29.90;17.55;;;;;;;12.67;77.25;99860.17;1732244;81;21314;-86
2021/04/21 06:45:14;;;;;;;17.80;13.88;;;;;;;12.76;78.03;99867.20;1728789;81;21136;-85
2021/04/21 06:48:21;;;;;;;26.30;14.35;;;;;;;12.90;77.03;99870.34;1732232;81;21844;-85
2021/04/21 06:51:29;;;;;;;18.55;15.23;;;;;;;12.99;75.40;99870.50;1722638;81;21448;-86
2021/04/21 06:54:35;;;;;;;22.48;14.93;;;;;;;13.04;75.38;99874.86;1740757;81;21289;-85
2021/04/21 06:57:42;;;;;;;18.07;13.30;;;;;;;13.10;73.74;99875.09;1724169;82;21310;-85
2021/04/21 07:00:47;;;;;;;23.07;14.10;;;;;;;13.19;74.08;99871.13;1730484;81;21271;-85
2021/04/21 07:03:55;;;;;;;19.35;14.75;;;;;;;13.23;72.72;99880.16;1722564;81;21294;-83
2021/04/21 07:07:03;;;;;;;16.87;12.50;;;;;;;13.27;71.86;99880.08;1738959;81;21828;-82
2021/04/21 07:10:08;;;;;;;15.83;12.98;;;;;;;13.39;71.80;99884.45;1727757;82;21300;-83
2021/04/21 07:13:27;;;;;;;17.45;13.80;;;;;;;13.41;71.15;99882.36;1721506;82;21195;-83
2021/04/21 07:16:39;;;;;;;17.98;12.82;;;;;;;13.40;69.88;99893.00;1755393;81;21259;-83
2021/04/21 07:19:47;;;;;;;16.60;12.43;;;;;;;13.51;71.35;99891.06;1753158;81;21259;-83
2021/04/21 07:22:54;;;;;;;17.98;12.05;;;;;;;13.60;69.32;99893.60;1750209;81;21283;-83
2021/04/21 07:26:01;;;;;;;15.32;12.05;;;;;;;13.63;69.09;99891.83;1753073;81;21287;-83
2021/04/21 07:29:07;;;;;;;10.82;9.43;;;;;;;13.75;69.69;99892.94;1750959;81;21680;-84
2021/04/21 07:32:32;;;;;;;9.58;7.80;;;;;;;13.88;68.27;99897.59;1754771;81;21373;-82
2021/04/21 07:35:37;;;;;;;13.93;9.33;;;;;;;13.90;65.75;99895.50;1752421;81;21212;-84
2021/04/21 07:38:54;;;;;;;14.15;10.58;;;;;;;13.82;64.70;99897.91;1754201;81;21166;-87
2021/04/21 07:41:59;;;;;;;14.05;10.48;;;;;;;13.78;64.50;99907.62;1754765;81;21271;-85
2021/04/21 07:45:06;;;;;;;16.93;10.30;;;;;;;13.82;64.89;99893.78;1757314;81;21848;-85
2021/04/21 07:48:10;;;;;;;13.08;10.55;;;;;;;13.88;64.65;99905.34;1751266;81;21286;-85
2021/04/21 07:51:31;;;;;;;11.70;10.05;;;;;;;13.97;65.58;99904.60;1749473;81;21270;-85
2021/04/21 07:54:42;;;;;;;15.55;9.10;;;;;;;14.03;65.20;99911.51;1757507;81;21326;-85
2021/04/21 07:57:40;;;;;;;17.23;9.70;;;;;;;14.17;65.05;99906.03;1754954;81;21852;-84
2021/04/21 08:00:51;;;;;;;14.98;9.93;;;;;;;14.29;63.98;99907.09;1758814;81;21267;-86
2021/04/21 08:03:57;;;;;;;13.93;8.95;;;;;;;14.38;64.17;99911.86;1758311;81;21278;-85
2021/04/21 08:07:06;;;;;;;11.63;9.28;;;;;;;14.52;64.19;99910.30;1758635;81;21252;-85
2021/04/21 08:10:19;;;;;;;11.48;9.58;;;;;;;14.66;64.24;99917.19;1746646;81;21263;-85
2021/04/21 08:13:24;;;;;;;11.40;8.98;;;;;;;14.85;63.37;99921.83;1754567;81;21290;-85
2021/04/21 08:16:39;;;;;;;10.63;8.08;;;;;;;14.96;62.78;99928.59;1752480;81;21185;-85
2021/04/21 08:19:46;;;;;;;10.65;8.78;;;;;;;14.95;61.48;99925.52;1755907;81;21264;-86
2021/04/21 08:22:56;;;;;;;11.12;9.23;;;;;;;14.95;60.10;99927.74;1752803;81;21291;-84
2021/04/21 08:26:02;;;;;;;12.60;9.60;;;;;;;15.03;61.69;99928.91;1752373;81;21312;-85
2021/04/21 08:29:09;;;;;;;11.12;8.43;;;;;;;15.21;61.59;99920.50;1751610;81;21866;-84
2021/04/21 08:32:22;;;;;;;11.55;8.95;;;;;;;15.38;61.52;99934.10;1749156;81;21295;-85
2021/04/21 08:35:26;;;;;;;14.00;8.75;;;;;;;15.40;59.92;99933.91;1752136;81;21334;-86
2021/04/21 08:38:33;;;;;;;8.98;7.28;;;;;;;15.37;58.92;99936.55;1753142;81;21283;-85
2021/04/21 08:41:44;;;;;;;16.07;9.58;;;;;;;15.26;58.48;99933.94;1750119;81;21357;-85
2021/04/21 08:44:51;;;;;;;11.28;9.35;;;;;;;15.05;58.22;99943.30;1755482;81;21869;-84
2021/04/21 08:47:57;;;;;;;14.28;10.15;;;;;;;14.85;58.17;99934.75;1728985;81;21625;-85
2021/04/21 08:51:03;;;;;;;15.48;9.85;;;;;;;14.62;59.25;99931.05;1746155;81;21271;-86
2021/04/21 08:54:14;;;;;;;12.15;9.13;;;;;;;14.56;59.89;99934.97;1762067;81;21195;-85
2021/04/21 08:57:20;;;;;;;14.95;9.50;;;;;;;14.59;59.46;99932.87;1755784;81;21275;-85
2021/04/21 09:00:26;;;;;;;12.80;8.53;;;;;;;14.67;60.22;99938.98;1754625;81;22210;-82
2021/04/21 09:03:35;;;;;;;11.15;7.17;;;;;;;14.82;60.22;99945.68;1746619;81;21255;-83
2021/04/21 09:06:39;;;;;;;11.28;8.35;;;;;;;14.89;58.70;99929.98;1753266;81;21286;-86
2021/04/21 09:09:46;;;;;;;10.38;7.35;;;;;;;14.83;59.01;99937.73;1753148;81;21181;-83
2021/04/21 09:12:52;;;;;;;8.45;6.03;;;;;;;14.83;60.03;99939.95;1754050;81;21298;-86
2021/04/21 09:15:59;;;;;;;8.00;5.33;;;;;;;14.97;60.58;99935.28;1746800;81;21263;-86
2021/04/21 09:19:05;;;;;;;7.12;5.25;;;;;;;15.01;56.15;99941.21;1744339;81;21695;-86
2021/04/21 09:22:13;;;;;;;5.65;4.85;;;;;;;14.86;56.98;99937.28;1750196;81;21884;-82
2021/04/21 09:25:22;;;;;;;5.58;4.80;;;;;;;14.78;56.60;99940.28;1751306;81;21233;-83
2021/04/21 09:28:34;;;;;;;8.23;5.35;;;;;;;14.73;56.29;99932.66;1715363;81;21821;-83
2021/04/21 09:31:40;;;;;;;5.45;4.50;;;;;;;14.68;57.52;99935.70;1755631;81;21302;-80
2021/04/21 09:35:03;;;;;;;6.47;4.83;;;;;;;14.74;58.09;99943.13;1765904;81;21137;-83
2021/04/21 09:38:30;;;;;;;5.22;4.65;;;;;;;14.81;56.46;99941.20;1742914;81;21299;-83
2021/04/21 09:41:37;;;;;;;5.92;4.75;;;;;;;14.85;58.11;99937.51;1728242;81;21153;-83
2021/04/21 09:44:43;;;;;;;5.87;4.55;;;;;;;14.98;59.06;99937.50;1749747;81;21199;-81
2021/04/21 09:47:49;;;;;;;6.80;4.05;;;;;;;15.06;57.73;99945.01;1720354;80;21315;-79
2021/04/21 09:51:05;;;;;;;7.28;4.60;;;;;;;15.13;57.21;99940.01;1747387;81;21824;-86
2021/04/21 09:54:12;;;;;;;4.97;4.25;;;;;;;15.29;56.32;99947.80;1750861;81;21876;-81
2021/04/21 09:57:23;;;;;;;4.40;3.75;;;;;;;15.44;56.00;99945.66;1752784;81;21227;-84
2021/04/21 10:00:33;;;;;;;4.70;3.83;;;;;;;15.58;56.20;99945.09;1760911;80;21224;-84
2021/04/21 10:03:40;;;;;;;4.95;4.10;;;;;;;15.65;55.14;99952.81;1725547;81;21279;-85
2021/04/21 10:06:57;;;;;;;7.75;3.77;;;;;;;15.62;54.46;99946.34;1739164;81;21285;-84
2021/04/21 10:10:03;;;;;;;9.20;3.83;;;;;;;15.65;54.54;99953.35;1724777;82;21786;-84
2021/04/21 10:13:20;;;;;;;5.25;3.85;;;;;;;15.71;54.07;99953.84;1759502;81;21656;-81
2021/04/21 10:16:28;;;;;;;4.22;3.15;;;;;;;15.63;53.21;99962.35;1756285;81;21283;-83
2021/04/21 10:19:34;;;;;;;4.25;3.30;;;;;;;15.49;51.89;99958.26;1752515;81;21322;-85
2021/04/21 10:22:39;;;;;;;6.75;3.58;;;;;;;15.47;53.83;99958.98;1757630;81;21275;-85
2021/04/21 10:25:44;;;;;;;4.33;3.70;;;;;;;15.42;53.11;99955.19;1733148;81;21171;-82
2021/04/21 10:28:52;;;;;;;3.65;3.20;;;;;;;15.27;55.24;99956.30;1718418;82;21299;-85
2021/04/21 10:31:59;;;;;;;3.80;3.40;;;;;;;15.19;54.42;99960.64;1723030;82;21777;-85
2021/04/21 10:35:05;;;;;;;8.38;4.40;;;;;;;15.27;53.90;99960.95;1722609;81;21278;-82
2021/04/21 10:38:12;;;;;;;6.90;3.67;;;;;;;15.38;55.53;99960.28;1720569;82;21694;-83
2021/04/21 10:41:43;;;;;;;5.87;3.37;;;;;;;15.49;54.25;99966.52;1724133;82;21264;-82
2021/04/21 10:44:37;;;;;;;6.83;3.80;;;;;;;15.64;54.72;99961.31;1738832;81;21701;-81
2021/04/21 10:47:52;;;;;;;4.47;3.33;;;;;;;15.71;52.42;99957.98;1731314;82;21226;-80
2021/04/21 10:50:57;;;;;;;3.67;3.30;;;;;;;15.61;52.04;99961.17;1729433;81;21263;-82
2021/04/21 10:54:09;;;;;;;5.55;3.50;;;;;;;15.42;51.31;99964.30;1733029;82;21195;-83
2021/04/21 10:57:33;;;;;;;4.05;3.58;;;;;;;15.25;51.85;99965.32;1736328;82;21274;-83
2021/04/21 11:00:44;;;;;;;5.08;3.35;;;;;;;15.10;53.76;99970.20;1723058;82;21259;-85
2021/04/21 11:03:51;;;;;;;3.80;2.87;;;;;;;15.09;55.19;99965.75;1736577;82;21330;-85
2021/04/21 11:06:57;;;;;;;4.15;3.37;;;;;;;15.13;55.66;99973.06;1733078;81;21197;-82
2021/04/21 11:10:03;;;;;;;5.95;3.90;;;;;;;15.15;54.59;99969.05;1728491;82;21845;-85
2021/04/21 11:13:10;;;;;;;6.85;3.70;;;;;;;15.09;54.75;99969.88;1727286;81;21152;-85
2021/04/21 11:16:37;;;;;;;4.83;3.37;;;;;;;15.04;54.60;99972.44;1724557;81;21254;-85
2021/04/21 11:19:48;;;;;;;5.28;3.10;;;;;;;14.94;54.09;99972.03;1740349;81;21777;-82
2021/04/21 11:22:54;;;;;;;6.22;3.60;;;;;;;14.78;55.07;99965.90;1725780;81;21315;-85
2021/04/21 11:26:00;;;;;;;5.45;3.33;;;;;;;14.66;57.08;99967.58;1721342;82;21280;-86
2021/04/21 11:29:32;;;;;;;4.03;3.47;;;;;;;14.57;57.24;99967.47;1728242;82;21290;-85
2021/04/21 11:32:47;;;;;;;3.67;3.20;;;;;;;14.56;57.62;99969.91;1717865;81;21804;-82
2021/04/21 11:35:52;;;;;;;6.45;3.15;;;;;;;14.51;57.58;99965.03;1736413;82;21600;-83
2021/04/21 11:38:59;;;;;;;5.35;3.10;;;;;;;14.50;57.92;99959.22;1731941;82;21275;-86
2021/04/21 11:42:05;;;;;;;3.75;3.25;;;;;;;14.57;59.47;99955.92;1721651;81;21357;-83
2021/04/21 11:45:29;;;;;;;4.55;2.75;;;;;;;14.70;59.56;99953.72;1712103;82;21659;-84
2021/04/21 11:48:36;;;;;;;3.15;2.50;;;;;;;14.74;58.33;99955.52;1723692;81;21923;-81
2021/04/21 11:51:47;;;;;;;5.05;3.20;;;;;;;14.73;57.14;99953.84;1732524;80;21844;-84
2021/04/21 11:54:53;;;;;;;3.02;2.62;;;;;;;14.82;56.95;99953.41;1754648;80;21316;-81
2021/04/21 11:58:03;;;;;;;4.78;3.30;;;;;;;15.07;57.27;99948.08;1734629;80;21163;-84
2021/04/21 12:01:15;;;;;;;4.30;2.43;;;;;;;15.31;54.82;99949.83;1740759;80;21262;-81
2021/04/21 12:04:21;;;;;;;5.92;2.55;;;;;;;15.47;54.49;99940.23;1742086;80;21282;-84
2021/04/21 12:07:29;;;;;;;3.30;2.22;;;;;;;15.54;53.14;99946.58;1742772;82;21271;-84
2021/04/21 12:10:35;;;;;;;3.95;2.55;;;;;;;15.52;51.66;99956.42;1740048;80;21275;-84
2021/04/21 12:13:51;;;;;;;3.85;2.42;;;;;;;15.45;52.22;99950.64;1734919;82;21832;-84
2021/04/21 12:16:57;;;;;;;3.77;2.75;;;;;;;15.43;51.36;99959.13;1739822;80;21301;-81
2021/04/21 12:20:02;;;;;;;3.25;2.33;;;;;;;15.42;51.41;99958.80;1740612;80;21804;-85
2021/04/21 12:23:09;;;;;;;2.42;2.20;;;;;;;15.34;51.71;99957.14;1741866;80;21266;-84
2021/04/21 12:26:36;;;;;;;2.55;2.27;;;;;;;15.28;52.31;99953.00;1742029;82;21131;-84
2021/04/21 12:29:43;;;;;;;2.95;2.37;;;;;;;15.25;53.02;99953.45;1739724;82;21144;-81
2021/04/21 12:32:49;;;;;;;2.98;2.40;;;;;;;15.22;52.18;99962.14;1740267;82;21252;-84
2021/04/21 12:35:54;;;;;;;3.27;2.25;;;;;;;15.22;52.27;99958.84;1746978;81;21267;-85
2021/04/21 12:39:10;;;;;;;4.20;2.60;;;;;;;15.27;51.93;99952.16;1731715;82;21355;-86
2021/04/21 12:42:16;;;;;;;3.42;2.20;;;;;;;15.31;52.44;99961.69;1725418;82;21837;-82
2021/04/21 12:45:33;;;;;;;3.37;2.35;;;;;;;15.31;51.64;99966.36;1740290;82;21255;-81
2021/04/21 12:48:38;;;;;;;3.20;2.35;;;;;;;15.27;51.69;99967.84;1725795;80;21309;-82
2021/04/21 12:51:46;;;;;;;5.95;2.35;;;;;;;15.19;51.12;99969.45;1763812;81;21242;-84
2021/04/21 12:54:57;;;;;;;4.05;2.90;;;;;;;15.14;52.78;99970.63;1764392;81;21825;-82
2021/04/21 12:58:01;;;;;;;;;;;;;;;15.09;53.68;99976.77;1728810;82;21156;-82
2021/04/21 13:01:16;;;;;;;4.62;3.22;;;;;;;15.00;54.76;99971.16;1733677;81;20670;-85
2021/04/21 13:04:21;;;;;;;3.90;3.27;;;;;;;14.92;55.34;99977.76;1761157;81;22204;-85
2021/04/21 13:07:29;;;;;;;4.47;3.12;;;;;;;14.81;55.48;99975.63;1756661;80;21278;-82
2021/04/21 13:10:34;;;;;;;5.97;4.30;;;;;;;14.69;53.88;99982.84;1735945;81;21741;-83
2021/04/21 13:13:41;;;;;;;5.92;3.65;;;;;;;14.65;54.97;99976.91;1719947;82;21190;-85
2021/04/21 13:16:48;;;;;;;6.12;4.30;;;;;;;14.73;56.16;99975.86;1732258;81;21250;-86
2021/04/21 13:20:01;;;;;;;8.20;4.67;;;;;;;14.79;57.97;99973.62;1722688;82;21721;-82
2021/04/21 13:23:22;;;;;;;7.33;4.80;;;;;;;14.80;59.14;99979.44;1737466;82;21195;-84
2021/04/21 13:26:29;;;;;;;10.38;4.40;;;;;;;14.74;59.49;99983.90;1718414;81;21278;-85
2021/04/21 13:29:42;;;;;;;7.90;3.85;;;;;;;14.72;59.89;99979.64;1746330;81;21231;-85
2021/04/21 13:32:56;;;;;;;8.50;4.47;;;;;;;14.75;59.80;99981.98;1730850;81;21271;-81
2021/04/21 13:36:00;;;;;;;10.72;4.30;;;;;;;14.77;60.34;99978.48;1735012;81;21262;-82
2021/04/21 13:39:05;;;;;;;5.60;4.08;;;;;;;14.77;59.61;99983.98;1727994;82;21255;-84
2021/04/21 13:42:12;;;;;;;6.03;4.25;;;;;;;14.72;59.78;99987.91;1739789;81;21302;-85
2021/04/21 13:45:22;;;;;;;4.78;4.05;;;;;;;14.59;59.20;99993.42;1749889;82;21282;-82
2021/04/21 13:48:27;;;;;;;7.08;4.50;;;;;;;14.45;58.91;99991.99;1738351;82;21298;-85
2021/04/21 13:51:35;;;;;;;7.40;4.83;;;;;;;14.42;59.38;99987.43;1742227;82;21275;-82
2021/04/21 13:54:40;;;;;;;6.53;3.85;;;;;;;14.43;59.75;99996.00;1730860;83;21310;-85
2021/04/21 13:57:47;;;;;;;6.60;3.83;;;;;;;14.48;60.82;99991.59;1742341;82;21809;-85
2021/04/21 14:00:52;;;;;;;6.58;3.90;;;;;;;14.54;59.38;99992.68;1718999;82;21327;-85
2021/04/21 14:04:01;;;;;;;6.75;4.28;;;;;;;14.56;60.40;99996.90;1743760;82;21314;-82
2021/04/21 14:07:06;;;;;;;10.13;4.37;;;;;;;14.57;60.74;99999.96;1730981;83;21436;-82
2021/04/21 14:10:12;;;;;;;6.83;4.53;;;;;;;14.50;60.12;99997.75;1743917;82;21350;-84
2021/04/21 14:13:17;;;;;;;8.73;4.90;;;;;;;14.42;60.26;99997.91;1730078;83;21334;-84
2021/04/21 14:16:23;;;;;;;4.12;3.08;;;;;;;14.33;58.48;100002.75;1744361;82;21179;-85
2021/04/21 14:19:29;;;;;;;6.95;4.47;;;;;;;14.31;58.09;100007.63;1733153;83;21318;-80
2021/04/21 14:22:35;;;;;;;7.53;4.62;;;;;;;14.27;59.38;99996.72;1743616;82;21290;-83
2021/04/21 14:25:40;;;;;;;5.37;4.60;;;;;;;14.23;60.22;99998.18;1743392;82;21302;-83
2021/04/21 14:28:44;;;;;;;9.00;4.42;;;;;;;14.12;60.78;99997.42;1729797;83;21358;-83
2021/04/21 14:31:52;;;;;;;7.85;4.50;;;;;;;14.04;60.69;100003.94;1743127;82;21294;-81
2021/04/21 14:34:59;;;;;;;6.10;4.55;;;;;;;13.96;60.91;100003.27;1743091;82;21262;-80
2021/04/21 14:38:05;;;;;;;8.80;4.78;;;;;;;13.88;60.95;100004.31;1742436;82;21188;-80
2021/04/21 14:41:10;;;;;;;15.68;5.47;;;;;;;13.81;60.47;100006.17;1731238;83;21271;-81
2021/04/21 14:44:18;;;;;;;8.65;5.10;;;;;;;13.70;61.45;99997.15;1743312;82;21274;-83
2021/04/21 14:47:24;;;;;;;7.50;4.62;;;;;;;13.58;62.10;99994.12;1742604;82;21341;-83
2021/04/21 14:50:31;;;;;;;8.00;4.78;;;;;;;13.48;62.25;100000.52;1747504;82;21896;-83
2021/04/21 14:53:37;;;;;;;9.13;4.33;;;;;;;13.38;62.94;100007.75;1736999;82;21306;-84
2021/04/21 14:56:44;;;;;;;4.85;3.47;;;;;;;13.28;63.50;100017.73;1742995;82;21601;-83